Altoona, Kansas
Current Conditions -  °F | °C
As of 5:21 AM on Saturday 25 Oct 2014 (Local Time) from KCNU Reporting Station
Haze Haze  
Wind Chill: 13°   Ceiling: 400
Heat Index: 13°   Visibility: 0.75mi
Dew Point: 13°   Wind: 0mph
Humidity: 100%   Direction: NA
Pressure: 30.04"   Gusts: NA
Location:  37.52°N, 95.66°W
Report Text: KCNU 251021Z AUTO 00000KT 3/4SM BR VV004 13/13 A3004 RMK AO2 T01330133
Loading
Personal Weather Stations






























Interactive Weather Map
Tropical Storm Tracking
New forecast layout! Learn more

10-Day Weather Forecast

Advertisements
Track Severe Weather on mobile